Wind From: 11-12-2017 04:25 Until: 16:00 warning for: Wind Level: Orange info button

Power and phone distribution networks may be disrupted for relatively long periods., Roofs and chimneys can be damaged. , Tree branches may break. , Vehicles can be deported. , Traffic may be disrupted, particularly on secondary roads in forest areas. Limit your trips. , Limit your speed in highway driving, especially if you drive a vehicle or hitch sensitive to wind. , Do not go for walks in forests or along the coast., In town, be vigilant against possible falling objects., Do not work on roofs and do not touch any electrical line fallen on the ground., Store or secure sensitive objects to wind or likely to be damaged., Always install power generators outside buildings. 


Meteo18 Weather Cam more information Meteo18 Weather Cam


Thunder radar more information blitzortung!


Rain radar more information rain snow radar


Visit our other weather sites:

Template documentation
and downloads

And another site



Weather Underground History page Text

Daily Summary for March 26, 2016 Units:  Metric    English   Both
« Previous Day
Next Day »
Daily Weekly Monthly Yearly Custom
  High: Low: Average:
Temperature: 18.6 °C 5.6 °C 11.9 °C
Dew Point: 10.8 °C 5.1 °C 8.6 °C
Humidity: 98 % 51 % 82 %
Wind Speed: 11.3 km/h 0.0 km/h 2.4 km/h
Wind Gust: 17.7 km/h - -
Wind:- - SW
Pressure: 1019.9 hPa 1006.0 hPa -
Precipitation: 0.0 mm    
Historical Graphs
 
 
Tabular Data for March 26, 2016
Time Temperature Dew Point Pressure Wind Wind Speed Wind Gust Humidity Rainfall Rate (Hourly)
00:02 9.8 °C 9.2 °C 1019.5 hPa SSW 3.2 km/h 6.4 km/h 96 % 0.0 mm
00:12 9.8 °C 9.2 °C 1019.5 hPa SW 4.8 km/h 8.0 km/h 96 % 0.0 mm
00:17 9.7 °C 9.1 °C 1019.5 hPa SW 1.6 km/h 8.0 km/h 96 % 0.0 mm
00:22 9.7 °C 9.1 °C 1019.5 hPa WSW 3.2 km/h 8.0 km/h 96 % 0.0 mm
00:27 9.7 °C 9.1 °C 1019.9 hPa SW 3.2 km/h 8.0 km/h 96 % 0.0 mm
00:32 9.7 °C 9.1 °C 1019.5 hPa WSW 1.6 km/h 8.0 km/h 96 % 0.0 mm
00:37 9.7 °C 9.1 °C 1019.5 hPa SW 3.2 km/h 8.0 km/h 96 % 0.0 mm
00:42 9.7 °C 9.1 °C 1019.5 hPa WSW 3.2 km/h 8.0 km/h 96 % 0.0 mm
00:47 9.7 °C 9.1 °C 1019.5 hPa SW 1.6 km/h 8.0 km/h 96 % 0.0 mm
00:57 9.7 °C 9.1 °C 1019.5 hPa SSW 1.6 km/h 11.3 km/h 96 % 0.0 mm
01:02 9.7 °C 9.1 °C 1019.5 hPa SW 3.2 km/h 11.3 km/h 96 % 0.0 mm
01:07 9.7 °C 9.1 °C 1019.9 hPa WSW 1.6 km/h 9.7 km/h 96 % 0.0 mm
01:12 9.7 °C 9.1 °C 1019.9 hPa SW 3.2 km/h 9.7 km/h 96 % 0.0 mm
01:17 9.7 °C 8.9 °C 1019.9 hPa SW 1.6 km/h 9.7 km/h 95 % 0.0 mm
01:22 9.6 °C 8.8 °C 1019.5 hPa WSW 6.4 km/h 9.7 km/h 95 % 0.0 mm
01:27 9.6 °C 8.8 °C 1019.5 hPa Calm   9.7 km/h 95 % 0.0 mm
01:32 9.6 °C 8.8 °C 1019.5 hPa SW 6.4 km/h 9.7 km/h 95 % 0.0 mm
01:42 9.6 °C 8.8 °C 1019.5 hPa SW 3.2 km/h 8.0 km/h 95 % 0.0 mm
01:47 9.6 °C 8.8 °C 1019.5 hPa SSW 1.6 km/h 8.0 km/h 95 % 0.0 mm
01:57 9.6 °C 8.8 °C 1019.5 hPa SW 1.6 km/h 4.8 km/h 95 % 0.0 mm
02:02 9.6 °C 8.8 °C 1019.5 hPa WSW 1.6 km/h 4.8 km/h 95 % 0.0 mm
02:07 9.6 °C 8.8 °C 1019.2 hPa WSW 1.6 km/h 4.8 km/h 95 % 0.0 mm
02:12 9.5 °C 8.7 °C 1019.2 hPa SW 1.6 km/h 4.8 km/h 95 % 0.0 mm
02:17 9.5 °C 8.9 °C 1019.2 hPa SSW 1.6 km/h 4.8 km/h 96 % 0.0 mm
02:27 9.4 °C 8.8 °C 1019.2 hPa Calm   8.0 km/h 96 % 0.0 mm
02:37 9.3 °C 8.7 °C 1019.2 hPa SW 6.4 km/h 6.4 km/h 96 % 0.0 mm
02:42 9.3 °C 8.7 °C 1019.2 hPa SW 4.8 km/h 6.4 km/h 96 % 0.0 mm
02:47 9.3 °C 8.7 °C 1019.2 hPa SSW 3.2 km/h 6.4 km/h 96 % 0.0 mm
02:57 9.2 °C 8.6 °C 1019.2 hPa WSW 3.2 km/h 6.4 km/h 96 % 0.0 mm
03:02 9.2 °C 8.6 °C 1019.2 hPa SW 1.6 km/h 6.4 km/h 96 % 0.0 mm
03:07 9.2 °C 8.6 °C 1018.8 hPa SW 1.6 km/h 6.4 km/h 96 % 0.0 mm
03:12 9.2 °C 8.6 °C 1018.8 hPa SW 1.6 km/h 6.4 km/h 96 % 0.0 mm
03:17 9.1 °C 8.5 °C 1018.8 hPa Calm   6.4 km/h 96 % 0.0 mm
03:22 9.1 °C 8.5 °C 1018.8 hPa Calm   6.4 km/h 96 % 0.0 mm
03:32 8.8 °C 8.2 °C 1018.8 hPa Calm   4.8 km/h 96 % 0.0 mm
03:37 8.7 °C 8.1 °C 1018.8 hPa Calm   1.6 km/h 96 % 0.0 mm
03:42 8.7 °C 8.3 °C 1018.8 hPa SW 1.6 km/h 1.6 km/h 97 % 0.0 mm
03:47 8.7 °C 8.3 °C 1018.8 hPa Calm   3.2 km/h 97 % 0.0 mm
03:52 8.7 °C 8.3 °C 1018.8 hPa Calm   3.2 km/h 97 % 0.0 mm
03:57 8.7 °C 8.3 °C 1018.5 hPa Calm   1.6 km/h 97 % 0.0 mm
04:02 8.7 °C 8.3 °C 1018.5 hPa Calm   1.6 km/h 97 % 0.0 mm
04:07 8.7 °C 8.3 °C 1018.5 hPa Calm   3.2 km/h 97 % 0.0 mm
04:12 8.7 °C 8.3 °C 1018.5 hPa Calm   3.2 km/h 97 % 0.0 mm
04:17 8.7 °C 8.3 °C 1018.5 hPa Calm   3.2 km/h 97 % 0.0 mm
04:22 8.6 °C 8.2 °C 1018.5 hPa Calm   3.2 km/h 97 % 0.0 mm
04:32 8.4 °C 7.8 °C 1018.5 hPa Calm   3.2 km/h 96 % 0.0 mm
04:37 8.4 °C 8.0 °C 1018.5 hPa Calm   1.6 km/h 97 % 0.0 mm
04:42 8.4 °C 8.0 °C 1018.5 hPa Calm   1.6 km/h 97 % 0.0 mm
04:47 8.3 °C 7.9 °C 1018.5 hPa SW 1.6 km/h 3.2 km/h 97 % 0.0 mm
04:52 8.3 °C 7.9 °C 1018.5 hPa Calm   3.2 km/h 97 % 0.0 mm
04:57 8.3 °C 7.9 °C 1018.5 hPa Calm   3.2 km/h 97 % 0.0 mm
05:02 8.3 °C 7.9 °C 1018.5 hPa Calm   3.2 km/h 97 % 0.0 mm
05:07 8.2 °C 7.8 °C 1018.5 hPa SW 1.6 km/h 3.2 km/h 97 % 0.0 mm
05:17 8.2 °C 7.8 °C 1018.5 hPa Calm   3.2 km/h 97 % 0.0 mm
05:22 8.2 °C 7.8 °C 1018.5 hPa Calm   3.2 km/h 97 % 0.0 mm
05:27 8.2 °C 7.8 °C 1018.5 hPa Calm   1.6 km/h 97 % 0.0 mm
05:32 8.2 °C 7.8 °C 1018.5 hPa Calm   1.6 km/h 97 % 0.0 mm
05:37 8.1 °C 7.7 °C 1018.5 hPa Calm   1.6 km/h 97 % 0.0 mm
05:42 8.1 °C 7.7 °C 1018.5 hPa Calm   1.6 km/h 97 % 0.0 mm
05:52 8.0 °C 7.6 °C 1018.5 hPa Calm   1.6 km/h 97 % 0.0 mm
05:57 8.0 °C 7.4 °C 1018.5 hPa Calm   3.2 km/h 96 % 0.0 mm
06:02 7.9 °C 7.3 °C 1018.2 hPa Calm   3.2 km/h 96 % 0.0 mm
06:12 7.7 °C 7.1 °C 1018.5 hPa Calm   1.6 km/h 96 % 0.0 mm
06:17 7.6 °C 7.0 °C 1018.5 hPa Calm   1.6 km/h 96 % 0.0 mm
06:22 7.6 °C 7.0 °C 1018.2 hPa Calm   1.6 km/h 96 % 0.0 mm
06:32 7.4 °C 6.8 °C 1018.5 hPa SW 1.6 km/h 1.6 km/h 96 % 0.0 mm
06:37 7.2 °C 6.6 °C 1018.5 hPa SW 1.6 km/h 1.6 km/h 96 % 0.0 mm
06:42 6.8 °C 6.1 °C 1018.2 hPa Calm   1.6 km/h 95 % 0.0 mm
06:47 6.6 °C 5.9 °C 1018.2 hPa Calm   1.6 km/h 95 % 0.0 mm
06:52 6.4 °C 5.8 °C 1018.2 hPa Calm   1.6 km/h 96 % 0.0 mm
06:57 6.3 °C 5.7 °C 1018.2 hPa SW 1.6 km/h 3.2 km/h 96 % 0.0 mm
07:02 6.1 °C 5.5 °C 1018.2 hPa Calm   3.2 km/h 96 % 0.0 mm
07:07 5.9 °C 5.3 °C 1018.5 hPa Calm   3.2 km/h 96 % 0.0 mm
07:12 5.8 °C 5.2 °C 1018.2 hPa Calm   1.6 km/h 96 % 0.0 mm
07:17 5.7 °C 5.1 °C 1018.5 hPa SW 1.6 km/h 1.6 km/h 96 % 0.0 mm
07:22 5.6 °C 5.2 °C 1018.5 hPa Calm   1.6 km/h 97 % 0.0 mm
07:32 5.7 °C 5.3 °C 1018.5 hPa Calm   1.6 km/h 97 % 0.0 mm
07:37 5.8 °C 5.4 °C 1018.2 hPa Calm   1.6 km/h 97 % 0.0 mm
07:42 5.9 °C 5.5 °C 1018.5 hPa Calm   1.6 km/h 97 % 0.0 mm
07:47 6.3 °C 6.0 °C 1018.5 hPa Calm   1.6 km/h 98 % 0.0 mm
07:52 6.5 °C 6.2 °C 1018.5 hPa Calm     98 % 0.0 mm
07:57 6.7 °C 6.4 °C 1018.2 hPa Calm     98 % 0.0 mm
08:02 6.9 °C 6.6 °C 1018.2 hPa West 3.2 km/h 3.2 km/h 98 % 0.0 mm
08:17 7.6 °C 7.2 °C 1018.2 hPa Calm   4.8 km/h 97 % 0.0 mm
08:22 7.8 °C 7.2 °C 1018.2 hPa SW 1.6 km/h 4.8 km/h 96 % 0.0 mm
08:27 8.1 °C 7.5 °C 1017.8 hPa SW 1.6 km/h 4.8 km/h 96 % 0.0 mm
08:32 8.2 °C 7.4 °C 1017.8 hPa WSW 1.6 km/h 4.8 km/h 95 % 0.0 mm
08:42 8.8 °C 7.9 °C 1017.8 hPa Calm   4.8 km/h 94 % 0.0 mm
08:47 9.1 °C 7.9 °C 1017.8 hPa WSW 1.6 km/h 4.8 km/h 92 % 0.0 mm
08:52 9.3 °C 7.9 °C 1017.8 hPa West 1.6 km/h 4.8 km/h 91 % 0.0 mm
08:57 9.8 °C 8.1 °C 1017.8 hPa West 1.6 km/h 4.8 km/h 89 % 0.0 mm
09:02 10.2 °C 8.6 °C 1017.8 hPa West 1.6 km/h 8.0 km/h 90 % 0.0 mm
09:07 10.7 °C 9.0 °C 1017.8 hPa South 1.6 km/h 8.0 km/h 89 % 0.0 mm
09:12 10.9 °C 8.6 °C 1017.8 hPa West 3.2 km/h 8.0 km/h 86 % 0.0 mm
09:17 11.2 °C 8.9 °C 1017.8 hPa West 1.6 km/h 8.0 km/h 86 % 0.0 mm
09:22 11.3 °C 8.7 °C 1017.8 hPa Calm   8.0 km/h 84 % 0.0 mm
09:27 11.6 °C 9.0 °C 1017.8 hPa WSW 1.6 km/h 8.0 km/h 84 % 0.0 mm
09:32 11.8 °C 9.4 °C 1017.8 hPa Calm   8.0 km/h 85 % 0.0 mm
09:37 12.3 °C 9.5 °C 1017.8 hPa Calm   8.0 km/h 83 % 0.0 mm
09:42 12.5 °C 9.5 °C 1017.8 hPa West 1.6 km/h 4.8 km/h 82 % 0.0 mm
09:52 12.9 °C 9.9 °C 1017.8 hPa Calm   9.7 km/h 82 % 0.0 mm
10:02 13.3 °C 9.9 °C 1017.8 hPa SW 1.6 km/h 9.7 km/h 80 % 0.0 mm
10:12 13.7 °C 9.5 °C 1017.5 hPa Calm   12.9 km/h 76 % 0.0 mm
10:17 13.5 °C 8.8 °C 1017.8 hPa WSW 6.4 km/h 12.9 km/h 73 % 0.0 mm
10:22 13.0 °C 8.3 °C 1017.8 hPa WSW 6.4 km/h 14.5 km/h 73 % 0.0 mm
10:27 12.8 °C 9.1 °C 1017.5 hPa SW 6.4 km/h 14.5 km/h 78 % 0.0 mm
10:37 12.6 °C 8.3 °C 1017.5 hPa WSW 11.3 km/h 16.1 km/h 75 % 0.0 mm
10:42 12.7 °C 8.2 °C 1017.5 hPa NW 4.8 km/h 16.1 km/h 74 % 0.0 mm
10:47 12.8 °C 8.3 °C 1017.5 hPa SW 4.8 km/h 16.1 km/h 74 % 0.0 mm
10:52 12.8 °C 8.3 °C 1017.5 hPa SW 4.8 km/h 16.1 km/h 74 % 0.0 mm
10:57 13.1 °C 8.4 °C 1017.5 hPa SW 4.8 km/h 14.5 km/h 73 % 0.0 mm
11:02 12.8 °C 7.7 °C 1017.5 hPa WSW 4.8 km/h 14.5 km/h 71 % 0.0 mm
11:12 13.3 °C 8.4 °C 1017.2 hPa WSW 6.4 km/h 17.7 km/h 72 % 0.0 mm
11:17 13.4 °C 8.5 °C 1017.2 hPa SW 8.0 km/h 17.7 km/h 72 % 0.0 mm
11:22 13.2 °C 7.6 °C 1017.2 hPa SSW 6.4 km/h 16.1 km/h 69 % 0.0 mm
11:27 13.4 °C 8.5 °C 1017.2 hPa SW 6.4 km/h 16.1 km/h 72 % 0.0 mm
11:32 13.7 °C 8.5 °C 1017.2 hPa SW 8.0 km/h 16.1 km/h 71 % 0.0 mm
11:37 13.8 °C 8.0 °C 1017.2 hPa SW 9.7 km/h 14.5 km/h 68 % 0.0 mm
11:42 13.9 °C 8.5 °C 1016.8 hPa WSW 4.8 km/h 14.5 km/h 70 % 0.0 mm
11:47 13.9 °C 8.9 °C 1016.8 hPa SW 11.3 km/h 14.5 km/h 72 % 0.0 mm
11:52 13.6 °C 8.4 °C 1016.8 hPa SW 6.4 km/h 14.5 km/h 71 % 0.0 mm
11:57 13.6 °C 8.9 °C 1016.8 hPa South 4.8 km/h 12.9 km/h 73 % 0.0 mm
12:02 13.5 °C 8.8 °C 1016.8 hPa SW 1.6 km/h 12.9 km/h 73 % 0.0 mm
12:12 13.9 °C 9.7 °C 1016.5 hPa NE 3.2 km/h 11.3 km/h 76 % 0.0 mm
12:17 14.4 °C 9.2 °C 1016.5 hPa West 8.0 km/h 12.9 km/h 71 % 0.0 mm
12:22 14.2 °C 9.2 °C 1016.5 hPa SW 8.0 km/h 12.9 km/h 72 % 0.0 mm
12:37 15.1 °C 9.7 °C 1016.1 hPa West 8.0 km/h 12.9 km/h 70 % 0.0 mm
12:42 15.4 °C 9.5 °C 1015.8 hPa SSW 3.2 km/h 12.9 km/h 68 % 0.0 mm
12:52 15.4 °C 9.5 °C 1015.8 hPa SW 4.8 km/h 12.9 km/h 68 % 0.0 mm
12:57 15.7 °C 9.8 °C 1016.1 hPa SE 6.4 km/h 12.9 km/h 68 % 0.0 mm
13:02 15.8 °C 9.2 °C 1015.8 hPa SW 8.0 km/h 11.3 km/h 65 % 0.0 mm
13:07 15.8 °C 9.2 °C 1015.8 hPa SW 4.8 km/h 14.5 km/h 65 % 0.0 mm
13:12 16.2 °C 10.3 °C 1015.8 hPa SE 3.2 km/h 14.5 km/h 68 % 0.0 mm
13:17 16.4 °C 10.5 °C 1015.5 hPa ENE 1.6 km/h 11.3 km/h 68 % 0.0 mm
13:22 16.7 °C 10.1 °C 1015.5 hPa West 4.8 km/h 12.9 km/h 65 % 0.0 mm
13:27 16.8 °C 10.2 °C 1015.5 hPa NW 3.2 km/h 12.9 km/h 65 % 0.0 mm
13:32 16.8 °C 9.0 °C 1015.1 hPa WSW 3.2 km/h 12.9 km/h 60 % 0.0 mm
13:37 16.6 °C 10.0 °C 1015.1 hPa WSW 4.8 km/h 12.9 km/h 65 % 0.0 mm
13:42 16.8 °C 10.2 °C 1015.1 hPa SW 8.0 km/h 12.9 km/h 65 % 0.0 mm
13:47 16.6 °C 8.3 °C 1015.1 hPa WNW 4.8 km/h 12.9 km/h 58 % 0.0 mm
13:52 16.7 °C 9.6 °C 1015.1 hPa West 4.8 km/h 12.9 km/h 63 % 0.0 mm
13:57 16.7 °C 9.1 °C 1014.8 hPa WSW 4.8 km/h 12.9 km/h 61 % 0.0 mm
14:02 16.7 °C 9.4 °C 1014.4 hPa South 1.6 km/h 12.9 km/h 62 % 0.0 mm
14:12 17.0 °C 9.2 °C 1014.4 hPa West 6.4 km/h 12.9 km/h 60 % 0.0 mm
14:22 17.4 °C 9.8 °C 1014.1 hPa SW 6.4 km/h 11.3 km/h 61 % 0.0 mm
14:27 17.3 °C 9.0 °C 1013.8 hPa West 8.0 km/h 14.5 km/h 58 % 0.0 mm
14:32 17.6 °C 10.5 °C 1013.8 hPa SW 6.4 km/h 14.5 km/h 63 % 0.0 mm
14:42 17.6 °C 9.2 °C 1013.4 hPa SW 6.4 km/h 14.5 km/h 58 % 0.0 mm
14:47 17.7 °C 9.6 °C 1013.4 hPa WSW 8.0 km/h 12.9 km/h 59 % 0.0 mm
14:52 17.3 °C 7.9 °C 1013.4 hPa West 8.0 km/h 12.9 km/h 54 % 0.0 mm
14:57 17.6 °C 10.0 °C 1013.4 hPa West 3.2 km/h 12.9 km/h 61 % 0.0 mm
15:02 17.9 °C 9.5 °C 1013.4 hPa SW 8.0 km/h 11.3 km/h 58 % 0.0 mm
15:07 18.1 °C 8.9 °C 1013.1 hPa WSW 11.3 km/h 11.3 km/h 55 % 0.0 mm
15:12 18.0 °C 9.6 °C 1013.1 hPa West 4.8 km/h 11.3 km/h 58 % 0.0 mm
15:17 17.9 °C 9.0 °C 1013.1 hPa SE 8.0 km/h 12.9 km/h 56 % 0.0 mm
15:22 17.9 °C 9.3 °C 1013.1 hPa West 4.8 km/h 14.5 km/h 57 % 0.0 mm
15:27 18.1 °C 8.9 °C 1013.1 hPa WSW 4.8 km/h 14.5 km/h 55 % 0.0 mm
15:32 18.1 °C 9.2 °C 1013.1 hPa WSW 3.2 km/h 14.5 km/h 56 % 0.0 mm
15:37 18.2 °C 8.5 °C 1012.8 hPa SSW 9.7 km/h 14.5 km/h 53 % 0.0 mm
15:42 18.1 °C 8.6 °C 1012.8 hPa West 1.6 km/h 14.5 km/h 54 % 0.0 mm
15:47 18.2 °C 9.0 °C 1012.8 hPa WSW 4.8 km/h 14.5 km/h 55 % 0.0 mm
15:52 18.3 °C 8.3 °C 1012.8 hPa WSW 9.7 km/h 12.9 km/h 52 % 0.0 mm
15:57 18.2 °C 9.3 °C 1012.8 hPa South 4.8 km/h 14.5 km/h 56 % 0.0 mm
16:02 18.3 °C 8.0 °C 1012.4 hPa WNW 3.2 km/h 14.5 km/h 51 % 0.0 mm
16:07 18.3 °C 8.6 °C 1012.4 hPa SSW 4.8 km/h 14.5 km/h 53 % 0.0 mm
16:12 18.6 °C 8.8 °C 1012.4 hPa South 8.0 km/h 14.5 km/h 53 % 0.0 mm
16:17 18.4 °C 8.1 °C 1012.1 hPa WSW 4.8 km/h 12.9 km/h 51 % 0.0 mm
16:22 18.4 °C 8.9 °C 1012.1 hPa West 6.4 km/h 11.3 km/h 54 % 0.0 mm
16:27 18.3 °C 8.3 °C 1012.1 hPa WNW 6.4 km/h 11.3 km/h 52 % 0.0 mm
16:32 18.3 °C 8.8 °C 1012.1 hPa SW 6.4 km/h 11.3 km/h 54 % 0.0 mm
16:37 18.4 °C 8.4 °C 1012.1 hPa SW 6.4 km/h 14.5 km/h 52 % 0.0 mm
16:42 18.4 °C 8.4 °C 1011.7 hPa NNW 3.2 km/h 14.5 km/h 52 % 0.0 mm
16:47 18.6 °C 9.1 °C 1011.7 hPa WNW 4.8 km/h 14.5 km/h 54 % 0.0 mm
16:52 18.5 °C 9.3 °C 1011.7 hPa SW 1.6 km/h 12.9 km/h 55 % 0.0 mm
16:57 18.1 °C 8.1 °C 1011.7 hPa WSW 3.2 km/h 12.9 km/h 52 % 0.0 mm
17:02 17.6 °C 8.5 °C 1011.7 hPa SW 3.2 km/h 12.9 km/h 55 % 0.0 mm
17:07 17.5 °C 9.1 °C 1011.7 hPa West 4.8 km/h 11.3 km/h 58 % 0.0 mm
17:12 17.1 °C 8.5 °C 1011.7 hPa WSW 1.6 km/h 11.3 km/h 57 % 0.0 mm
17:17 16.8 °C 9.2 °C 1011.7 hPa SW 1.6 km/h 6.4 km/h 61 % 0.0 mm
17:22 16.6 °C 9.5 °C 1011.7 hPa SW 1.6 km/h 6.4 km/h 63 % 0.0 mm
17:32 16.4 °C 9.8 °C 1011.4 hPa Calm   4.8 km/h 65 % 0.0 mm
17:37 16.4 °C 9.8 °C 1011.4 hPa SSW 1.6 km/h 6.4 km/h 65 % 0.0 mm
17:42 16.3 °C 9.7 °C 1011.4 hPa Calm   6.4 km/h 65 % 0.0 mm
17:47 16.3 °C 9.7 °C 1011.4 hPa SW 1.6 km/h 6.4 km/h 65 % 0.0 mm
17:52 16.3 °C 10.2 °C 1011.1 hPa WSW 1.6 km/h 3.2 km/h 67 % 0.0 mm
17:57 16.3 °C 10.4 °C 1011.1 hPa Calm   3.2 km/h 68 % 0.0 mm
18:02 16.2 °C 10.5 °C 1011.1 hPa Calm   3.2 km/h 69 % 0.0 mm
18:12 15.9 °C 10.6 °C 1010.7 hPa Calm   3.2 km/h 71 % 0.0 mm
18:22 15.7 °C 10.5 °C 1010.4 hPa WSW 1.6 km/h 1.6 km/h 71 % 0.0 mm
18:27 15.3 °C 10.5 °C 1010.7 hPa Calm   1.6 km/h 73 % 0.0 mm
18:37 14.8 °C 10.2 °C 1010.7 hPa SW 1.6 km/h 1.6 km/h 74 % 0.0 mm
18:42 14.7 °C 10.1 °C 1010.7 hPa SSE 1.6 km/h 4.8 km/h 74 % 0.0 mm
18:47 14.6 °C 10.2 °C 1010.7 hPa SW 3.2 km/h 4.8 km/h 75 % 0.0 mm
18:57 14.2 °C 10.2 °C 1010.4 hPa WSW 3.2 km/h 6.4 km/h 77 % 0.0 mm
19:02 14.3 °C 10.5 °C 1010.4 hPa SW 8.0 km/h 8.0 km/h 78 % 0.0 mm
19:07 14.6 °C 10.6 °C 1010.4 hPa SW 8.0 km/h 9.7 km/h 77 % 0.0 mm
19:12 14.7 °C 10.7 °C 1010.4 hPa SW 4.8 km/h 9.7 km/h 77 % 0.0 mm
19:17 14.6 °C 10.8 °C 1010.4 hPa SW 6.4 km/h 9.7 km/h 78 % 0.0 mm
19:22 14.4 °C 10.8 °C 1010.0 hPa SW 1.6 km/h 9.7 km/h 79 % 0.0 mm
19:27 14.1 °C 10.7 °C 1010.0 hPa SW 1.6 km/h 6.4 km/h 80 % 0.0 mm
19:32 13.8 °C 10.6 °C 1010.0 hPa SW 1.6 km/h 6.4 km/h 81 % 0.0 mm
19:37 13.4 °C 10.6 °C 1010.0 hPa Calm   4.8 km/h 83 % 0.0 mm
19:42 13.2 °C 10.6 °C 1010.0 hPa Calm   4.8 km/h 84 % 0.0 mm
19:47 12.9 °C 10.4 °C 1009.7 hPa Calm   3.2 km/h 85 % 0.0 mm
19:52 12.8 °C 10.3 °C 1009.7 hPa Calm   3.2 km/h 85 % 0.0 mm
19:57 12.6 °C 10.1 °C 1009.4 hPa Calm   1.6 km/h 85 % 0.0 mm
20:02 12.4 °C 9.9 °C 1009.4 hPa Calm   1.6 km/h 85 % 0.0 mm
20:12 12.0 °C 9.7 °C 1009.4 hPa Calm   1.6 km/h 86 % 0.0 mm
20:17 11.7 °C 9.4 °C 1009.4 hPa Calm   1.6 km/h 86 % 0.0 mm
20:27 11.2 °C 9.3 °C 1009.0 hPa Calm     88 % 0.0 mm
20:37 10.7 °C 9.0 °C 1008.7 hPa Calm     89 % 0.0 mm
20:42 10.4 °C 8.8 °C 1008.7 hPa Calm     90 % 0.0 mm
20:47 10.4 °C 9.0 °C 1008.4 hPa Calm     91 % 0.0 mm
20:52 10.6 °C 9.4 °C 1008.4 hPa Calm     92 % 0.0 mm
20:57 10.5 °C 9.1 °C 1008.4 hPa Calm     91 % 0.0 mm
21:02 10.3 °C 8.9 °C 1008.4 hPa Calm     91 % 0.0 mm
21:07 10.2 °C 9.0 °C 1008.4 hPa Calm     92 % 0.0 mm
21:12 10.2 °C 9.0 °C 1008.0 hPa Calm     92 % 0.0 mm
21:17 10.1 °C 8.9 °C 1008.0 hPa Calm   1.6 km/h 92 % 0.0 mm
21:22 10.0 °C 8.8 °C 1008.0 hPa Calm   1.6 km/h 92 % 0.0 mm
21:27 10.0 °C 8.9 °C 1007.7 hPa Calm   1.6 km/h 93 % 0.0 mm
21:32 9.9 °C 8.7 °C 1008.0 hPa Calm   1.6 km/h 92 % 0.0 mm
21:37 9.7 °C 8.3 °C 1007.7 hPa Calm   1.6 km/h 91 % 0.0 mm
21:42 9.5 °C 8.1 °C 1007.7 hPa Calm   1.6 km/h 91 % 0.0 mm
21:47 9.3 °C 8.1 °C 1007.7 hPa Calm   1.6 km/h 92 % 0.0 mm
21:57 9.5 °C 8.4 °C 1007.7 hPa Calm     93 % 0.0 mm
22:07 9.6 °C 8.5 °C 1007.7 hPa Calm   1.6 km/h 93 % 0.0 mm
22:12 9.5 °C 8.3 °C 1007.7 hPa Calm   1.6 km/h 92 % 0.0 mm
22:17 9.4 °C 8.2 °C 1007.3 hPa Calm   1.6 km/h 92 % 0.0 mm
22:22 9.4 °C 8.3 °C 1007.3 hPa Calm   1.6 km/h 93 % 0.0 mm
22:27 9.3 °C 8.1 °C 1007.3 hPa Calm   1.6 km/h 92 % 0.0 mm
22:32 9.3 °C 8.1 °C 1007.3 hPa Calm   1.6 km/h 92 % 0.0 mm
22:37 9.2 °C 8.1 °C 1007.3 hPa Calm   1.6 km/h 93 % 0.0 mm
22:42 9.2 °C 8.1 °C 1007.3 hPa Calm   1.6 km/h 93 % 0.0 mm
22:47 9.2 °C 8.0 °C 1007.3 hPa Calm   1.6 km/h 92 % 0.0 mm
22:52 9.1 °C 7.9 °C 1007.3 hPa Calm   1.6 km/h 92 % 0.0 mm
22:57 9.1 °C 7.9 °C 1007.0 hPa Calm   1.6 km/h 92 % 0.0 mm
23:02 8.9 °C 7.7 °C 1007.0 hPa Calm   1.6 km/h 92 % 0.0 mm
23:12 8.7 °C 7.5 °C 1006.7 hPa Calm   1.6 km/h 92 % 0.0 mm
23:17 8.8 °C 7.6 °C 1006.7 hPa Calm     92 % 0.0 mm
23:27 9.1 °C 7.7 °C 1006.3 hPa Calm     91 % 0.0 mm
23:32 9.3 °C 7.7 °C 1006.7 hPa Calm     90 % 0.0 mm
23:37 9.5 °C 7.9 °C 1006.3 hPa Calm   1.6 km/h 90 % 0.0 mm
23:42 9.7 °C 8.1 °C 1006.3 hPa Calm   1.6 km/h 90 % 0.0 mm
23:47 10.0 °C 8.4 °C 1006.0 hPa Calm   1.6 km/h 90 % 0.0 mm
23:52 10.3 °C 8.6 °C 1006.0 hPa SW 1.6 km/h 1.6 km/h 89 % 0.0 mm
23:57 10.7 °C 8.6 °C 1006.0 hPa SSE 1.6 km/h 4.8 km/h 87 % 0.0 mm
Meteo18
Compliments of Weather Underground - 4 mb

Script developed by  Jim McMurry - jmcmurry@mwt.net Adapted for the template by  Wim van der Kuil - Leuven-Template.eu

You find our weather info also at:

European Weather Network

Weather Underground

Equipment we use:

Weather-station
Davis Vue

Weather-program
Meteohub

Weather-server
Raspberry PI 2 B+

Provider
1 and 1

Davis Vue

Meteohub

Raspberry PI 2 B+

1 and 1